»·PEaware :: N221XG KPDX-KDLS

N221XG :: KPDX-KDLS

FLIGHT INFORMATION

Flight Status: Arrived
Operator: Privately registered:
United States
More flights under this callsign
Pilot: Ryan L. (9775)
Aircraft: BEECH AIRCRAFT SUPER KING AIR 350
(B350)
More flights by this aircraft type
Origin: KPDX Portland Intl
United States
Destination: KDLS Columbia Gorge Regl/The Dalle
United States
More flights between these airports :: More routes between these airports
Route: +PTLD1 LTJ V112 VECCU
File this flight plan on PilotEdge
Remarks:
Altitude:
(Current/Filed)
9,000ft
Speed:
(Current/Filed)
250kts
Departed: 08-Sep-19 02:31 PM
Arrived: 08-Sep-19 03:03 PM
Distance/Time
Traveled:
60nm/0:32
Distance/Time
To Go:
Arrived

Flight Plot

Page will automatically refresh every two minutes.

Flight plan parsing failed; only flown route is shown


Map Options




Map Legend


Flown Route
Filed Route
Departure Airport
Arrival Airport
Navaid (VOR, NDB)
Fix

Horizontal Profiles

Position Reports

Time Latitude Longitude Heading Altitude Ground
Speed
08-Sep-19 14:14 45.586674 -122.583922 117 34ft 0kts
08-Sep-19 14:15 45.586674 -122.583922 117 34ft 0kts
08-Sep-19 14:16 45.586674 -122.583922 117 34ft 0kts
08-Sep-19 14:17 45.586674 -122.583922 117 34ft 0kts
08-Sep-19 14:18 45.586674 -122.583922 117 34ft 0kts
08-Sep-19 14:19 45.586669 -122.583908 117 34ft 1kts
08-Sep-19 14:20 45.586635 -122.583110 31 34ft 2kts
08-Sep-19 14:21 45.587143 -122.582725 23 34ft 0kts
08-Sep-19 14:22 45.587143 -122.582725 23 34ft 0kts
08-Sep-19 14:23 45.587143 -122.582725 23 34ft 0kts
08-Sep-19 14:24 45.587257 -122.582655 21 34ft 4kts
08-Sep-19 14:26 45.588008 -122.581414 118 34ft 12kts
08-Sep-19 14:27 45.585813 -122.575804 117 34ft 17kts
08-Sep-19 14:28 45.583442 -122.569701 118 34ft 16kts
08-Sep-19 14:29 45.582749 -122.567345 65 34ft 0kts
08-Sep-19 14:30 45.584118 -122.568228 298 34ft 16kts
08-Sep-19 14:31 45.598426 -122.603777 301 652ft 148kts
08-Sep-19 14:32 45.620614 -122.657295 300 2459ft 163kts
08-Sep-19 14:33 45.644614 -122.713812 297 4296ft 168kts
08-Sep-19 14:34 45.680052 -122.724452 66 6304ft 189kts
08-Sep-19 14:35 45.681791 -122.648441 79 8216ft 195kts
08-Sep-19 14:36 45.688726 -122.564743 87 9033ft 248kts
08-Sep-19 14:37 45.690756 -122.455633 86 9005ft 288kts
08-Sep-19 14:38 45.693353 -122.339093 87 8998ft 293kts
08-Sep-19 14:39 45.695626 -122.222191 87 8998ft 291kts
08-Sep-19 14:40 45.698008 -122.105976 87 8998ft 291kts
08-Sep-19 14:41 45.700298 -121.989785 86 9000ft 291kts
08-Sep-19 14:42 45.702472 -121.873767 86 9008ft 290kts
08-Sep-19 14:43 45.704484 -121.758047 87 9047ft 289kts
08-Sep-19 14:43 45.706056 -121.661455 87 9045ft 290kts
08-Sep-19 14:45 45.708118 -121.526546 86 9045ft 290kts
08-Sep-19 14:46 45.709725 -121.411115 86 9045ft 289kts
08-Sep-19 14:46 45.710895 -121.315024 88 9043ft 288kts
08-Sep-19 14:47 45.712229 -121.200764 88 8474ft 284kts
08-Sep-19 14:49 45.710595 -121.071851 99 7999ft 268kts
08-Sep-19 14:49 45.698176 -120.987378 101 7991ft 249kts
08-Sep-19 14:50 45.684999 -120.893512 101 7960ft 230kts
08-Sep-19 14:51 45.687575 -120.807526 70 7905ft 214kts
08-Sep-19 14:53 45.709786 -120.715335 57 7399ft 206kts
08-Sep-19 14:53 45.747840 -120.716976 293 6344ft 197kts
08-Sep-19 14:54 45.717078 -120.770529 207 5253ft 195kts
08-Sep-19 14:55 45.689793 -120.827467 253 5256ft 176kts
08-Sep-19 14:56 45.675882 -120.892538 254 5049ft 160kts
08-Sep-19 14:57 45.662749 -120.954821 253 4012ft 151kts
08-Sep-19 14:58 45.651519 -121.006275 250 3427ft 130kts
08-Sep-19 14:59 45.639935 -121.051367 251 2615ft 118kts
08-Sep-19 15:00 45.627764 -121.093350 245 1702ft 113kts
08-Sep-19 15:01 45.621608 -121.135279 270 797ft 99kts
08-Sep-19 15:02 45.621035 -121.169226 267 252ft 27kts
08-Sep-19 15:03 45.619287 -121.172094 209 252ft 8kts
08-Sep-19 15:04 45.618829 -121.172450 204 252ft 0kts
08-Sep-19 15:05 45.618829 -121.172450 204 252ft 0kts
08-Sep-19 15:06 45.618829 -121.172450 204 252ft 0kts

Navigation Log

Ident Type
Flight plan parsing failed, navigation log unavailable